PWSweather.com
Personal Weather Stations
Station Observations
CARNOUSTIE
Pambride, CarnoustieGB DD7 6DY

PambrideCarnoustieGB DD7 6DY

Lat: 56.50889, Lon: -2.7051

Elevation: 105

Station Type: Oregon Scientific WMR200

Latest ConditionsUpdated 5:50:01 PM GMT Saturday, May 26, 2018
Currently Today's Max Today's Min Today's Average
Temperature 67.9°F19.9°C 77.4°F25.2°C 52.7°F11.5°C 64.4°F18.0°C
Dew Point 49.6°F9.8°C 54.9°F12.7°C 47.2°F8.4°C 51.0°F10.6°C
Winds 12.7 mph NNE20.4 kmh NNE 17.3 mph NE27.8 kmh NE - 11.7 mph 18.8 kmh
Wind Gusts 16.1 mph25.9 kmh 20.7 mph33.3 kmh - -
Humidity 52% 84% 43% 64%
Pressure 30.33 in1027.1 mb 30.36 in1028.1 mb 30.27 in1025.1 mb -
Hour Temp Dew Point Humidity Winds Wind Gusts Pressure Precip Precip Rate Daily Precip Total
05:50 PM 67.9°F19.9°C 49.6°F9.8°C 52% 12.7 mph NNE20.4 kmh NNE 16.1 mph25.9 kmh 30.33 in1027.1 mb - 0.00 in0.0 mm 0.00 in0.0 mm
05:40 PM 67.5°F19.7°C 49.8°F9.9°C 53% 11.5 mph NE18.5 kmh NE 13.8 mph22.2 kmh 30.33 in1027.1 mb - 0.00 in0.0 mm 0.00 in0.0 mm
05:30 PM 65.9°F18.8°C 49.2°F9.6°C 55% 11.5 mph NE18.5 kmh NE 13.8 mph22.2 kmh 30.30 in1026.1 mb - 0.00 in0.0 mm 0.00 in0.0 mm
05:20 PM 65.5°F18.6°C 48.4°F9.1°C 54% 13.8 mph NE22.2 kmh NE 16.1 mph25.9 kmh 30.30 in1026.1 mb - 0.00 in0.0 mm 0.00 in0.0 mm
05:10 PM 68.0°F20.0°C 49.2°F9.6°C 51% 12.7 mph NE20.4 kmh NE 20.7 mph33.3 kmh 30.30 in1026.1 mb - 0.00 in0.0 mm 0.00 in0.0 mm
05:00 PM 71.0°F21.7°C 50.3°F10.2°C 48% 11.5 mph NNE18.5 kmh NNE 16.1 mph25.9 kmh 30.33 in1027.1 mb - 0.00 in0.0 mm 0.00 in0.0 mm
04:50 PM 73.6°F23.1°C 51.6°F10.9°C 46% 8.1 mph NE13.0 kmh NE 10.4 mph16.7 kmh 30.30 in1026.1 mb - 0.00 in0.0 mm 0.00 in0.0 mm
04:40 PM 75.6°F24.2°C 52.8°F11.6°C 45% 11.5 mph ENE18.5 kmh ENE 13.8 mph22.2 kmh 30.30 in1026.1 mb - 0.00 in0.0 mm 0.00 in0.0 mm
04:30 PM 75.9°F24.4°C 53.0°F11.7°C 45% 9.2 mph ENE14.8 kmh ENE 12.7 mph20.4 kmh 30.33 in1027.1 mb - 0.00 in0.0 mm 0.00 in0.0 mm
04:20 PM 74.8°F23.8°C 53.3°F11.8°C 47% 6.9 mph ENE11.1 kmh ENE 9.2 mph14.8 kmh 30.33 in1027.1 mb - 0.00 in0.0 mm 0.00 in0.0 mm
04:10 PM 74.8°F23.8°C 52.1°F11.2°C 45% 10.4 mph NE16.7 kmh NE 13.8 mph22.2 kmh 30.33 in1027.1 mb - 0.00 in0.0 mm 0.00 in0.0 mm
04:00 PM 74.6°F23.7°C 51.9°F11.1°C 45% 10.4 mph NE16.7 kmh NE 12.7 mph20.4 kmh 30.30 in1026.1 mb - 0.00 in0.0 mm 0.00 in0.0 mm
03:50 PM 75.1°F23.9°C 52.3°F11.3°C 45% 11.5 mph NE18.5 kmh NE 18.4 mph29.6 kmh 30.33 in1027.1 mb - 0.00 in0.0 mm 0.00 in0.0 mm
03:40 PM 75.6°F24.2°C 52.1°F11.2°C 44% 11.5 mph NNE18.5 kmh NNE 12.7 mph20.4 kmh 30.33 in1027.1 mb - 0.00 in0.0 mm 0.00 in0.0 mm
03:30 PM 76.3°F24.6°C 52.8°F11.6°C 44% 10.4 mph NE16.7 kmh NE 13.8 mph22.2 kmh 30.30 in1026.1 mb - 0.00 in0.0 mm 0.00 in0.0 mm
03:20 PM 76.8°F24.9°C 52.6°F11.4°C 43% 10.4 mph NE16.7 kmh NE 12.7 mph20.4 kmh 30.33 in1027.1 mb - 0.00 in0.0 mm 0.00 in0.0 mm
03:10 PM 77.4°F25.2°C 53.7°F12.1°C 44% 9.2 mph NE14.8 kmh NE 13.8 mph22.2 kmh 30.33 in1027.1 mb - 0.00 in0.0 mm 0.00 in0.0 mm
03:00 PM 76.1°F24.5°C 52.0°F11.1°C 43% 12.7 mph NE20.4 kmh NE 15.0 mph24.1 kmh 30.33 in1027.1 mb - 0.00 in0.0 mm 0.00 in0.0 mm
02:50 PM 75.4°F24.1°C 52.0°F11.1°C 44% 10.4 mph NE16.7 kmh NE 13.8 mph22.2 kmh 30.30 in1026.1 mb - 0.00 in0.0 mm 0.00 in0.0 mm
02:40 PM 75.5°F24.2°C 51.5°F10.8°C 43% 12.7 mph NNE20.4 kmh NNE 15.0 mph24.1 kmh 30.30 in1026.1 mb - 0.00 in0.0 mm 0.00 in0.0 mm
02:30 PM 75.7°F24.3°C 51.6°F10.9°C 43% 11.5 mph NE18.5 kmh NE 13.8 mph22.2 kmh 30.33 in1027.1 mb - 0.00 in0.0 mm 0.00 in0.0 mm
02:20 PM 75.6°F24.2°C 52.2°F11.2°C 44% 12.7 mph NE20.4 kmh NE 16.1 mph25.9 kmh 30.30 in1026.1 mb - 0.00 in0.0 mm 0.00 in0.0 mm
02:10 PM 75.0°F23.9°C 52.2°F11.2°C 45% 12.7 mph NNE20.4 kmh NNE 16.1 mph25.9 kmh 30.30 in1026.1 mb - 0.00 in0.0 mm 0.00 in0.0 mm
02:00 PM 75.0°F23.9°C 52.2°F11.2°C 45% 13.8 mph NE22.2 kmh NE 16.1 mph25.9 kmh 30.33 in1027.1 mb - 0.00 in0.0 mm 0.00 in0.0 mm
01:50 PM 75.4°F24.1°C 52.5°F11.4°C 45% 11.5 mph NE18.5 kmh NE 15.0 mph24.1 kmh 30.33 in1027.1 mb - 0.00 in0.0 mm 0.00 in0.0 mm
01:40 PM 75.0°F23.9°C 52.8°F11.6°C 46% 13.8 mph NE22.2 kmh NE 15.0 mph24.1 kmh 30.33 in1027.1 mb - 0.00 in0.0 mm 0.00 in0.0 mm
01:30 PM 76.0°F24.4°C 54.9°F12.7°C 48% 8.1 mph NE13.0 kmh NE 12.7 mph20.4 kmh 30.33 in1027.1 mb - 0.00 in0.0 mm 0.00 in0.0 mm
01:20 PM 72.9°F22.7°C 54.2°F12.3°C 52% 10.4 mph E16.7 kmh E 12.7 mph20.4 kmh 30.33 in1027.1 mb - 0.00 in0.0 mm 0.00 in0.0 mm
01:10 PM 71.2°F21.8°C 52.7°F11.5°C 52% 13.8 mph ENE22.2 kmh ENE 15.0 mph24.1 kmh 30.33 in1027.1 mb - 0.00 in0.0 mm 0.00 in0.0 mm
01:00 PM 72.3°F22.4°C 53.2°F11.8°C 51% 13.8 mph E22.2 kmh E 19.6 mph31.5 kmh 30.30 in1026.1 mb - 0.00 in0.0 mm 0.00 in0.0 mm
12:50 PM 73.8°F23.2°C 54.5°F12.5°C 51% 10.4 mph E16.7 kmh E 12.7 mph20.4 kmh 30.33 in1027.1 mb - 0.00 in0.0 mm 0.00 in0.0 mm
12:40 PM 73.0°F22.8°C 52.1°F11.2°C 48% 12.7 mph NE20.4 kmh NE 17.3 mph27.8 kmh 30.33 in1027.1 mb - 0.00 in0.0 mm 0.00 in0.0 mm
12:30 PM 72.1°F22.3°C 51.9°F11.1°C 49% 13.8 mph NE22.2 kmh NE 18.4 mph29.6 kmh 30.33 in1027.1 mb - 0.00 in0.0 mm 0.00 in0.0 mm
12:20 PM 72.3°F22.4°C 52.1°F11.2°C 49% 17.3 mph NNE27.8 kmh NNE 20.7 mph33.3 kmh 30.33 in1027.1 mb - 0.00 in0.0 mm 0.00 in0.0 mm
12:10 PM 72.3°F22.4°C 52.6°F11.4°C 50% 13.8 mph NNE22.2 kmh NNE 20.7 mph33.3 kmh 30.33 in1027.1 mb - 0.00 in0.0 mm 0.00 in0.0 mm
12:00 PM 71.4°F21.9°C 52.3°F11.3°C 51% 15.0 mph NE24.1 kmh NE 17.3 mph27.8 kmh 30.33 in1027.1 mb - 0.00 in0.0 mm 0.00 in0.0 mm
11:50 AM 71.1°F21.7°C 53.1°F11.7°C 53% 13.8 mph NE22.2 kmh NE 16.1 mph25.9 kmh 30.33 in1027.1 mb - 0.00 in0.0 mm 0.00 in0.0 mm
11:40 AM 70.6°F21.4°C 52.6°F11.4°C 53% 16.1 mph NE25.9 kmh NE 19.6 mph31.5 kmh 30.33 in1027.1 mb - 0.00 in0.0 mm 0.00 in0.0 mm
11:30 AM 69.8°F21.0°C 51.9°F11.1°C 53% 17.3 mph NE27.8 kmh NE 20.7 mph33.3 kmh 30.30 in1026.1 mb - 0.00 in0.0 mm 0.00 in0.0 mm
11:20 AM 70.3°F21.3°C 53.4°F11.9°C 55% 13.8 mph NNE22.2 kmh NNE 17.3 mph27.8 kmh 30.33 in1027.1 mb - 0.00 in0.0 mm 0.00 in0.0 mm
11:10 AM 70.2°F21.2°C 53.3°F11.8°C 55% 15.0 mph NE24.1 kmh NE 20.7 mph33.3 kmh 30.33 in1027.1 mb - 0.00 in0.0 mm 0.00 in0.0 mm
11:00 AM 70.4°F21.3°C 52.9°F11.6°C 54% 13.8 mph NE22.2 kmh NE 16.1 mph25.9 kmh 30.33 in1027.1 mb - 0.00 in0.0 mm 0.00 in0.0 mm
10:50 AM 70.7°F21.5°C 53.7°F12.1°C 55% 13.8 mph NE22.2 kmh NE 20.7 mph33.3 kmh 30.33 in1027.1 mb - 0.00 in0.0 mm 0.00 in0.0 mm
10:40 AM 69.8°F21.0°C 53.9°F12.2°C 57% 12.7 mph NE20.4 kmh NE 15.0 mph24.1 kmh 30.33 in1027.1 mb - 0.00 in0.0 mm 0.00 in0.0 mm
10:30 AM 69.9°F21.1°C 53.5°F11.9°C 56% 11.5 mph ENE18.5 kmh ENE 15.0 mph24.1 kmh 30.33 in1027.1 mb - 0.00 in0.0 mm 0.00 in0.0 mm
10:20 AM 70.8°F21.6°C 52.8°F11.6°C 53% 12.7 mph NE20.4 kmh NE 16.1 mph25.9 kmh 30.33 in1027.1 mb - 0.00 in0.0 mm 0.00 in0.0 mm
10:10 AM 70.9°F21.6°C 52.9°F11.6°C 53% 15.0 mph NE24.1 kmh NE 20.7 mph33.3 kmh 30.33 in1027.1 mb - 0.00 in0.0 mm 0.00 in0.0 mm
10:00 AM 70.3°F21.3°C 53.4°F11.9°C 55% 12.7 mph NE20.4 kmh NE 13.8 mph22.2 kmh 30.36 in1028.1 mb - 0.00 in0.0 mm 0.00 in0.0 mm
09:50 AM 69.6°F20.9°C 52.2°F11.2°C 54% 12.7 mph NE20.4 kmh NE 17.3 mph27.8 kmh 30.33 in1027.1 mb - 0.00 in0.0 mm 0.00 in0.0 mm
09:40 AM 69.8°F21.0°C 52.4°F11.3°C 54% 13.8 mph NE22.2 kmh NE 17.3 mph27.8 kmh 30.33 in1027.1 mb - 0.00 in0.0 mm 0.00 in0.0 mm
09:30 AM 69.8°F21.0°C 52.9°F11.6°C 55% 13.8 mph NE22.2 kmh NE 16.1 mph25.9 kmh 30.33 in1027.1 mb - 0.00 in0.0 mm 0.00 in0.0 mm
09:20 AM 69.6°F20.9°C 53.2°F11.8°C 56% 13.8 mph NE22.2 kmh NE 19.6 mph31.5 kmh 30.33 in1027.1 mb - 0.00 in0.0 mm 0.00 in0.0 mm
09:10 AM 69.1°F20.6°C 53.2°F11.8°C 57% 15.0 mph NE24.1 kmh NE 18.4 mph29.6 kmh 30.33 in1027.1 mb - 0.00 in0.0 mm 0.00 in0.0 mm
09:00 AM 68.7°F20.4°C 53.8°F12.1°C 59% 12.7 mph NE20.4 kmh NE 13.8 mph22.2 kmh 30.36 in1028.1 mb - 0.00 in0.0 mm 0.00 in0.0 mm
08:50 AM 67.5°F19.7°C 53.1°F11.7°C 60% 11.5 mph NE18.5 kmh NE 15.0 mph24.1 kmh 30.33 in1027.1 mb - 0.00 in0.0 mm 0.00 in0.0 mm
08:40 AM 66.7°F19.3°C 52.9°F11.6°C 61% 16.1 mph NE25.9 kmh NE 20.7 mph33.3 kmh 30.33 in1027.1 mb - 0.00 in0.0 mm 0.00 in0.0 mm
08:30 AM 66.3°F19.1°C 52.9°F11.6°C 62% 12.7 mph ENE20.4 kmh ENE 13.8 mph22.2 kmh 30.33 in1027.1 mb - 0.00 in0.0 mm 0.00 in0.0 mm
08:20 AM 65.9°F18.8°C 53.0°F11.7°C 63% 10.4 mph NE16.7 kmh NE 13.8 mph22.2 kmh 30.33 in1027.1 mb - 0.00 in0.0 mm 0.00 in0.0 mm
08:10 AM 65.7°F18.7°C 53.6°F12.0°C 65% 12.7 mph NE20.4 kmh NE 13.8 mph22.2 kmh 30.33 in1027.1 mb - 0.00 in0.0 mm 0.00 in0.0 mm
08:00 AM 65.5°F18.6°C 54.6°F12.6°C 68% 11.5 mph NE18.5 kmh NE 17.3 mph27.8 kmh 30.33 in1027.1 mb - 0.00 in0.0 mm 0.00 in0.0 mm
07:50 AM 64.0°F17.8°C 54.0°F12.2°C 70% 9.2 mph NE14.8 kmh NE 13.8 mph22.2 kmh 30.33 in1027.1 mb - 0.00 in0.0 mm 0.00 in0.0 mm
07:40 AM 63.5°F17.5°C 54.3°F12.4°C 72% 9.2 mph NE14.8 kmh NE 15.0 mph24.1 kmh 30.33 in1027.1 mb - 0.00 in0.0 mm 0.00 in0.0 mm
07:30 AM 61.9°F16.6°C 53.1°F11.7°C 73% 11.5 mph NE18.5 kmh NE 13.8 mph22.2 kmh 30.33 in1027.1 mb - 0.00 in0.0 mm 0.00 in0.0 mm
07:20 AM 61.5°F16.4°C 52.7°F11.5°C 73% 12.7 mph NE20.4 kmh NE 15.0 mph24.1 kmh 30.33 in1027.1 mb - 0.00 in0.0 mm 0.00 in0.0 mm
07:10 AM 60.8°F16.0°C 52.1°F11.2°C 73% 13.8 mph NE22.2 kmh NE 18.4 mph29.6 kmh 30.33 in1027.1 mb - 0.00 in0.0 mm 0.00 in0.0 mm
07:00 AM 60.1°F15.6°C 51.8°F11.0°C 74% 12.7 mph NE20.4 kmh NE 13.8 mph22.2 kmh 30.33 in1027.1 mb - 0.00 in0.0 mm 0.00 in0.0 mm
06:50 AM 59.9°F15.5°C 52.0°F11.1°C 75% 11.5 mph NE18.5 kmh NE 13.8 mph22.2 kmh 30.33 in1027.1 mb - 0.00 in0.0 mm 0.00 in0.0 mm
06:40 AM 59.1°F15.1°C 51.8°F11.0°C 77% 11.5 mph NNE18.5 kmh NNE 13.8 mph22.2 kmh 30.33 in1027.1 mb - 0.00 in0.0 mm 0.00 in0.0 mm
06:30 AM 57.9°F14.4°C 51.5°F10.8°C 79% 9.2 mph NE14.8 kmh NE 10.4 mph16.7 kmh 30.33 in1027.1 mb - 0.00 in0.0 mm 0.00 in0.0 mm
06:20 AM 57.4°F14.1°C 50.6°F10.3°C 78% 12.7 mph NE20.4 kmh NE 15.0 mph24.1 kmh 30.33 in1027.1 mb - 0.00 in0.0 mm 0.00 in0.0 mm
06:10 AM 57.4°F14.1°C 50.6°F10.3°C 78% 12.7 mph NE20.4 kmh NE 15.0 mph24.1 kmh 30.33 in1027.1 mb - 0.00 in0.0 mm 0.00 in0.0 mm
06:00 AM 57.2°F14.0°C 50.7°F10.4°C 79% 11.5 mph NNE18.5 kmh NNE 13.8 mph22.2 kmh 30.30 in1026.1 mb - 0.00 in0.0 mm 0.00 in0.0 mm
05:50 AM 56.8°F13.8°C 50.7°F10.4°C 80% 13.8 mph N22.2 kmh N 16.1 mph25.9 kmh 30.30 in1026.1 mb - 0.00 in0.0 mm 0.00 in0.0 mm
05:40 AM 56.3°F13.5°C 50.6°F10.3°C 81% 12.7 mph NNE20.4 kmh NNE 16.1 mph25.9 kmh 30.30 in1026.1 mb - 0.00 in0.0 mm 0.00 in0.0 mm
05:30 AM 55.2°F12.9°C 50.1°F10.1°C 83% 9.2 mph NNE14.8 kmh NNE 11.5 mph18.5 kmh 30.30 in1026.1 mb - 0.00 in0.0 mm 0.00 in0.0 mm
05:20 AM 54.5°F12.5°C 49.4°F9.7°C 83% 12.7 mph NNE20.4 kmh NNE 13.8 mph22.2 kmh 30.30 in1026.1 mb - 0.00 in0.0 mm 0.00 in0.0 mm
05:10 AM 54.2°F12.3°C 49.1°F9.5°C 83% 12.7 mph NNE20.4 kmh NNE 15.0 mph24.1 kmh 30.30 in1026.1 mb - 0.00 in0.0 mm 0.00 in0.0 mm
05:00 AM 53.8°F12.1°C 49.1°F9.5°C 84% 13.8 mph NNE22.2 kmh NNE 17.3 mph27.8 kmh 30.30 in1026.1 mb - 0.00 in0.0 mm 0.00 in0.0 mm
04:50 AM 53.4°F11.9°C 48.7°F9.3°C 84% 11.5 mph NNE18.5 kmh NNE 13.8 mph22.2 kmh 30.30 in1026.1 mb - 0.00 in0.0 mm 0.00 in0.0 mm
04:40 AM 53.1°F11.7°C 48.4°F9.1°C 84% 10.4 mph NE16.7 kmh NE 16.1 mph25.9 kmh 30.30 in1026.1 mb - 0.00 in0.0 mm 0.00 in0.0 mm
04:30 AM 52.7°F11.5°C 48.0°F8.9°C 84% 10.4 mph NE16.7 kmh NE 16.1 mph25.9 kmh 30.30 in1026.1 mb - 0.00 in0.0 mm 0.00 in0.0 mm
04:20 AM 52.7°F11.5°C 48.0°F8.9°C 84% 8.1 mph NE13.0 kmh NE 10.4 mph16.7 kmh 30.30 in1026.1 mb - 0.00 in0.0 mm 0.00 in0.0 mm
04:10 AM 53.0°F11.7°C 48.0°F8.9°C 83% 9.2 mph NNE14.8 kmh NNE 11.5 mph18.5 kmh 30.30 in1026.1 mb - 0.00 in0.0 mm 0.00 in0.0 mm
04:00 AM 53.2°F11.8°C 48.2°F9.0°C 83% 9.2 mph NE14.8 kmh NE 11.5 mph18.5 kmh 30.30 in1026.1 mb - 0.00 in0.0 mm 0.00 in0.0 mm
03:50 AM 53.6°F12.0°C 48.2°F9.0°C 82% 9.2 mph NE14.8 kmh NE 11.5 mph18.5 kmh 30.30 in1026.1 mb - 0.00 in0.0 mm 0.00 in0.0 mm
03:40 AM 54.0°F12.2°C 48.6°F9.2°C 82% 10.4 mph NNE16.7 kmh NNE 12.7 mph20.4 kmh 30.30 in1026.1 mb - 0.00 in0.0 mm 0.00 in0.0 mm
03:30 AM 53.8°F12.1°C 48.4°F9.1°C 82% 11.5 mph NE18.5 kmh NE 15.0 mph24.1 kmh 30.30 in1026.1 mb - 0.00 in0.0 mm 0.00 in0.0 mm
03:20 AM 53.4°F11.9°C 48.1°F8.9°C 82% 10.4 mph NNE16.7 kmh NNE 13.8 mph22.2 kmh 30.30 in1026.1 mb - 0.00 in0.0 mm 0.00 in0.0 mm
03:10 AM 53.2°F11.8°C 47.9°F8.8°C 82% 8.1 mph NE13.0 kmh NE 10.4 mph16.7 kmh 30.30 in1026.1 mb - 0.00 in0.0 mm 0.00 in0.0 mm
03:00 AM 53.2°F11.8°C 47.6°F8.7°C 81% 8.1 mph NNE13.0 kmh NNE 11.5 mph18.5 kmh 30.30 in1026.1 mb - 0.00 in0.0 mm 0.00 in0.0 mm
02:50 AM 53.1°F11.7°C 47.4°F8.6°C 81% 9.2 mph NE14.8 kmh NE 11.5 mph18.5 kmh 30.30 in1026.1 mb - 0.00 in0.0 mm 0.00 in0.0 mm
02:40 AM 53.1°F11.7°C 47.4°F8.6°C 81% 5.8 mph NNE9.3 kmh NNE 10.4 mph16.7 kmh 30.30 in1026.1 mb - 0.00 in0.0 mm 0.00 in0.0 mm
02:30 AM 52.9°F11.6°C 47.2°F8.4°C 81% 9.2 mph N14.8 kmh N 10.4 mph16.7 kmh 30.30 in1026.1 mb - 0.00 in0.0 mm 0.00 in0.0 mm
02:20 AM 53.1°F11.7°C 47.4°F8.6°C 81% 8.1 mph NE13.0 kmh NE 11.5 mph18.5 kmh 30.30 in1026.1 mb - 0.00 in0.0 mm 0.00 in0.0 mm
02:10 AM 53.2°F11.8°C 47.2°F8.4°C 80% 9.2 mph NNE14.8 kmh NNE 10.4 mph16.7 kmh 30.30 in1026.1 mb - 0.00 in0.0 mm 0.00 in0.0 mm
02:00 AM 53.4°F11.9°C 47.4°F8.6°C 80% 8.1 mph NE13.0 kmh NE 9.2 mph14.8 kmh 30.30 in1026.1 mb - 0.00 in0.0 mm 0.00 in0.0 mm
01:50 AM 53.6°F12.0°C 47.6°F8.7°C 80% 8.1 mph NE13.0 kmh NE 9.2 mph14.8 kmh 30.27 in1025.1 mb - 0.00 in0.0 mm 0.00 in0.0 mm
01:40 AM 53.5°F11.9°C 47.5°F8.6°C 80% 9.2 mph NE14.8 kmh NE 12.7 mph20.4 kmh 30.27 in1025.1 mb - 0.00 in0.0 mm 0.00 in0.0 mm
01:30 AM 53.6°F12.0°C 47.6°F8.7°C 80% 10.4 mph NNE16.7 kmh NNE 16.1 mph25.9 kmh 30.27 in1025.1 mb - 0.00 in0.0 mm 0.00 in0.0 mm
01:20 AM 53.2°F11.8°C 47.6°F8.7°C 81% 13.8 mph NNE22.2 kmh NNE 18.4 mph29.6 kmh 30.27 in1025.1 mb - 0.00 in0.0 mm 0.00 in0.0 mm
01:10 AM 53.2°F11.8°C 47.6°F8.7°C 81% 9.2 mph NNE14.8 kmh NNE 15.0 mph24.1 kmh 30.27 in1025.1 mb - 0.00 in0.0 mm 0.00 in0.0 mm
01:00 AM 53.4°F11.9°C 47.7°F8.7°C 81% 9.2 mph N14.8 kmh N 15.0 mph24.1 kmh 30.30 in1026.1 mb - 0.00 in0.0 mm 0.00 in0.0 mm
12:50 AM 53.6°F12.0°C 47.6°F8.7°C 80% 11.5 mph N18.5 kmh N 15.0 mph24.1 kmh 30.30 in1026.1 mb - 0.00 in0.0 mm 0.00 in0.0 mm
12:40 AM 53.6°F12.0°C 47.9°F8.8°C 81% 13.8 mph NE22.2 kmh NE 15.0 mph24.1 kmh 30.30 in1026.1 mb - 0.00 in0.0 mm 0.00 in0.0 mm
12:30 AM 53.4°F11.9°C 48.1°F8.9°C 82% 12.7 mph NE20.4 kmh NE 18.4 mph29.6 kmh 30.27 in1025.1 mb - 0.00 in0.0 mm 0.00 in0.0 mm
12:20 AM 53.4°F11.9°C 48.1°F8.9°C 82% 11.5 mph N18.5 kmh N 15.0 mph24.1 kmh 30.27 in1025.1 mb - 0.00 in0.0 mm 0.00 in0.0 mm
12:10 AM 53.4°F11.9°C 48.1°F8.9°C 82% 11.5 mph N18.5 kmh N 18.4 mph29.6 kmh 30.27 in1025.1 mb - 0.00 in0.0 mm 0.00 in0.0 mm
12:00 AM 53.4°F11.9°C 48.1°F8.9°C 82% 10.4 mph NE16.7 kmh NE 15.0 mph24.1 kmh 30.27 in1025.1 mb - 0.00 in0.0 mm 0.00 in0.0 mm